sensor_id;sensor_type;location;lat;lon;timestamp;temperature;humidity
69084;SHT31;56185;48.526;9.044;2023-02-12T00:00:41;4.34;75.37
69084;SHT31;56185;48.526;9.044;2023-02-12T00:03:06;4.24;75.56
69084;SHT31;56185;48.526;9.044;2023-02-12T00:05:33;4.36;75.24
69084;SHT31;56185;48.526;9.044;2023-02-12T00:08:01;4.42;75.08
69084;SHT31;56185;48.526;9.044;2023-02-12T00:10:26;4.46;74.80
69084;SHT31;56185;48.526;9.044;2023-02-12T00:12:54;4.44;74.87
69084;SHT31;56185;48.526;9.044;2023-02-12T00:15:20;4.29;75.23
69084;SHT31;56185;48.526;9.044;2023-02-12T00:17:45;4.22;75.54
69084;SHT31;56185;48.526;9.044;2023-02-12T00:20:10;4.29;75.51
69084;SHT31;56185;48.526;9.044;2023-02-12T00:22:36;4.45;74.89
69084;SHT31;56185;48.526;9.044;2023-02-12T00:25:01;4.45;74.77
69084;SHT31;56185;48.526;9.044;2023-02-12T00:27:26;4.28;75.44
69084;SHT31;56185;48.526;9.044;2023-02-12T00:29:51;4.24;75.60
69084;SHT31;56185;48.526;9.044;2023-02-12T00:32:17;4.29;75.39
69084;SHT31;56185;48.526;9.044;2023-02-12T00:34:42;4.28;75.50
69084;SHT31;56185;48.526;9.044;2023-02-12T00:37:07;4.29;75.38
69084;SHT31;56185;48.526;9.044;2023-02-12T00:39:32;4.42;75.17
69084;SHT31;56185;48.526;9.044;2023-02-12T00:41:58;4.46;75.10
69084;SHT31;56185;48.526;9.044;2023-02-12T00:44:23;4.26;75.58
69084;SHT31;56185;48.526;9.044;2023-02-12T00:46:48;4.18;75.71
69084;SHT31;56185;48.526;9.044;2023-02-12T00:49:13;4.46;75.23
69084;SHT31;56185;48.526;9.044;2023-02-12T00:51:39;4.41;75.08
69084;SHT31;56185;48.526;9.044;2023-02-12T00:54:04;4.31;75.28
69084;SHT31;56185;48.526;9.044;2023-02-12T00:56:30;4.19;75.59
69084;SHT31;56185;48.526;9.044;2023-02-12T00:58:55;4.09;75.98
69084;SHT31;56185;48.526;9.044;2023-02-12T01:01:20;4.16;75.97
69084;SHT31;56185;48.526;9.044;2023-02-12T01:03:46;4.26;75.55
69084;SHT31;56185;48.526;9.044;2023-02-12T01:06:11;4.22;75.59
69084;SHT31;56185;48.526;9.044;2023-02-12T01:08:36;4.21;75.79
69084;SHT31;56185;48.526;9.044;2023-02-12T01:11:03;4.08;76.27
69084;SHT31;56185;48.526;9.044;2023-02-12T01:13:30;4.08;76.27
69084;SHT31;56185;48.526;9.044;2023-02-12T01:16:09;4.04;76.50
69084;SHT31;56185;48.526;9.044;2023-02-12T01:18:38;4.15;76.34
69084;SHT31;56185;48.526;9.044;2023-02-12T01:21:15;4.25;75.86
69084;SHT31;56185;48.526;9.044;2023-02-12T01:23:41;4.19;75.85
69084;SHT31;56185;48.526;9.044;2023-02-12T01:26:07;4.26;75.76
69084;SHT31;56185;48.526;9.044;2023-02-12T01:28:32;4.39;75.49
69084;SHT31;56185;48.526;9.044;2023-02-12T01:30:58;4.24;75.72
69084;SHT31;56185;48.526;9.044;2023-02-12T01:33:23;4.16;76.09
69084;SHT31;56185;48.526;9.044;2023-02-12T01:35:48;4.26;75.92
69084;SHT31;56185;48.526;9.044;2023-02-12T01:38:14;4.35;75.59
69084;SHT31;56185;48.526;9.044;2023-02-12T01:40:39;4.26;75.92
69084;SHT31;56185;48.526;9.044;2023-02-12T01:43:05;4.26;76.05
69084;SHT31;56185;48.526;9.044;2023-02-12T01:48:06;4.44;75.48
69084;SHT31;56185;48.526;9.044;2023-02-12T01:50:32;4.36;75.71
69084;SHT31;56185;48.526;9.044;2023-02-12T01:52:58;4.44;75.55
69084;SHT31;56185;48.526;9.044;2023-02-12T01:55:23;4.44;75.33
69084;SHT31;56185;48.526;9.044;2023-02-12T01:57:49;4.22;75.37
69084;SHT31;56185;48.526;9.044;2023-02-12T02:00:20;4.21;75.32
69084;SHT31;56185;48.526;9.044;2023-02-12T02:02:48;4.04;75.88
69084;SHT31;56185;48.526;9.044;2023-02-12T02:05:22;3.93;76.62
69084;SHT31;56185;48.526;9.044;2023-02-12T02:07:48;4.12;75.76
69084;SHT31;56185;48.526;9.044;2023-02-12T02:10:13;4.19;75.43
69084;SHT31;56185;48.526;9.044;2023-02-12T02:12:38;4.16;75.63
69084;SHT31;56185;48.526;9.044;2023-02-12T02:15:04;4.08;75.87
69084;SHT31;56185;48.526;9.044;2023-02-12T02:17:58;4.07;75.90
69084;SHT31;56185;48.526;9.044;2023-02-12T02:30:59;3.99;76.38
69084;SHT31;56185;48.526;9.044;2023-02-12T02:33:36;4.01;76.31
69084;SHT31;56185;48.526;9.044;2023-02-12T02:36:24;3.94;76.59
69084;SHT31;56185;48.526;9.044;2023-02-12T02:41:36;4.05;76.28
69084;SHT31;56185;48.526;9.044;2023-02-12T02:44:09;3.84;77.01
69084;SHT31;56185;48.526;9.044;2023-02-12T02:46:56;3.69;77.57
69084;SHT31;56185;48.526;9.044;2023-02-12T02:49:24;3.56;78.14
69084;SHT31;56185;48.526;9.044;2023-02-12T02:51:56;3.49;78.82
69084;SHT31;56185;48.526;9.044;2023-02-12T02:54:31;3.49;78.72
69084;SHT31;56185;48.526;9.044;2023-02-12T02:57:12;3.55;78.79
69084;SHT31;56185;48.526;9.044;2023-02-12T02:59:42;3.71;78.47
69084;SHT31;56185;48.526;9.044;2023-02-12T03:02:27;3.83;77.95
69084;SHT31;56185;48.526;9.044;2023-02-12T03:05:00;3.95;77.63
69084;SHT31;56185;48.526;9.044;2023-02-12T03:07:31;4.05;77.09
69084;SHT31;56185;48.526;9.044;2023-02-12T03:10:10;4.02;77.22
69084;SHT31;56185;48.526;9.044;2023-02-12T03:12:43;4.15;77.00
69084;SHT31;56185;48.526;9.044;2023-02-12T03:15:28;4.05;77.31
69084;SHT31;56185;48.526;9.044;2023-02-12T03:17:55;4.01;77.60
69084;SHT31;56185;48.526;9.044;2023-02-12T03:20:29;3.99;77.66
69084;SHT31;56185;48.526;9.044;2023-02-12T03:23:00;4.04;77.61
69084;SHT31;56185;48.526;9.044;2023-02-12T03:25:33;3.97;77.94
69084;SHT31;56185;48.526;9.044;2023-02-12T03:28:06;3.91;78.03
69084;SHT31;56185;48.526;9.044;2023-02-12T03:31:43;3.90;78.08
69084;SHT31;56185;48.526;9.044;2023-02-12T03:36:54;4.08;77.77
69084;SHT31;56185;48.526;9.044;2023-02-12T03:39:52;4.05;77.75
69084;SHT31;56185;48.526;9.044;2023-02-12T03:42:26;4.02;77.88
69084;SHT31;56185;48.526;9.044;2023-02-12T03:44:57;4.09;77.91
69084;SHT31;56185;48.526;9.044;2023-02-12T03:50:09;3.93;78.27
69084;SHT31;56185;48.526;9.044;2023-02-12T03:52:36;4.07;78.08
69084;SHT31;56185;48.526;9.044;2023-02-12T03:55:03;3.98;78.14
69084;SHT31;56185;48.526;9.044;2023-02-12T03:57:32;4.02;78.13
69084;SHT31;56185;48.526;9.044;2023-02-12T04:00:03;4.09;78.07
69084;SHT31;56185;48.526;9.044;2023-02-12T04:02:29;4.09;78.09
69084;SHT31;56185;48.526;9.044;2023-02-12T04:04:54;4.09;78.10
69084;SHT31;56185;48.526;9.044;2023-02-12T04:07:20;4.11;78.03
69084;SHT31;56185;48.526;9.044;2023-02-12T04:09:45;4.14;77.89
69084;SHT31;56185;48.526;9.044;2023-02-12T04:12:33;4.28;77.50
69084;SHT31;56185;48.526;9.044;2023-02-12T04:18:19;4.16;77.75
69084;SHT31;56185;48.526;9.044;2023-02-12T04:29:44;4.04;78.14
69084;SHT31;56185;48.526;9.044;2023-02-12T04:32:25;4.16;78.03
69084;SHT31;56185;48.526;9.044;2023-02-12T04:35:17;4.07;78.01
69084;SHT31;56185;48.526;9.044;2023-02-12T04:40:23;4.09;78.13
69084;SHT31;56185;48.526;9.044;2023-02-12T04:42:51;4.02;78.38
69084;SHT31;56185;48.526;9.044;2023-02-12T04:45:25;4.09;78.07
69084;SHT31;56185;48.526;9.044;2023-02-12T04:47:51;4.16;77.88
69084;SHT31;56185;48.526;9.044;2023-02-12T04:50:17;4.15;77.76
69084;SHT31;56185;48.526;9.044;2023-02-12T04:52:42;4.18;77.69
69084;SHT31;56185;48.526;9.044;2023-02-12T04:55:07;4.18;77.46
69084;SHT31;56185;48.526;9.044;2023-02-12T04:57:33;4.21;77.36
69084;SHT31;56185;48.526;9.044;2023-02-12T04:59:58;4.24;77.30
69084;SHT31;56185;48.526;9.044;2023-02-12T05:02:23;4.26;77.12
69084;SHT31;56185;48.526;9.044;2023-02-12T05:04:49;4.21;77.33
69084;SHT31;56185;48.526;9.044;2023-02-12T05:07:15;4.19;77.52
69084;SHT31;56185;48.526;9.044;2023-02-12T05:09:40;4.19;77.63
69084;SHT31;56185;48.526;9.044;2023-02-12T05:12:06;4.24;77.54
69084;SHT31;56185;48.526;9.044;2023-02-12T05:14:31;4.18;77.70
69084;SHT31;56185;48.526;9.044;2023-02-12T05:16:56;4.12;77.87
69084;SHT31;56185;48.526;9.044;2023-02-12T05:19:22;4.24;77.68
69084;SHT31;56185;48.526;9.044;2023-02-12T05:21:49;4.29;77.45
69084;SHT31;56185;48.526;9.044;2023-02-12T05:24:14;4.16;77.72
69084;SHT31;56185;48.526;9.044;2023-02-12T05:26:40;4.14;78.10
69084;SHT31;56185;48.526;9.044;2023-02-12T05:29:05;4.14;78.03
69084;SHT31;56185;48.526;9.044;2023-02-12T05:31:30;4.18;78.07
69084;SHT31;56185;48.526;9.044;2023-02-12T05:33:55;4.16;78.08
69084;SHT31;56185;48.526;9.044;2023-02-12T05:36:22;4.08;78.30
69084;SHT31;56185;48.526;9.044;2023-02-12T05:38:49;4.09;78.46
69084;SHT31;56185;48.526;9.044;2023-02-12T05:41:16;4.08;78.48
69084;SHT31;56185;48.526;9.044;2023-02-12T05:43:42;4.05;78.57
69084;SHT31;56185;48.526;9.044;2023-02-12T05:46:08;3.99;78.87
69084;SHT31;56185;48.526;9.044;2023-02-12T05:48:36;3.94;78.95
69084;SHT31;56185;48.526;9.044;2023-02-12T05:53:27;4.04;78.55
69084;SHT31;56185;48.526;9.044;2023-02-12T05:55:52;4.02;78.72
69084;SHT31;56185;48.526;9.044;2023-02-12T05:58:18;4.04;78.74
69084;SHT31;56185;48.526;9.044;2023-02-12T06:00:43;3.98;78.76
69084;SHT31;56185;48.526;9.044;2023-02-12T06:03:08;3.95;78.91
69084;SHT31;56185;48.526;9.044;2023-02-12T06:05:33;3.90;79.19
69084;SHT31;56185;48.526;9.044;2023-02-12T06:07:58;3.91;79.08
69084;SHT31;56185;48.526;9.044;2023-02-12T06:10:24;3.94;79.07
69084;SHT31;56185;48.526;9.044;2023-02-12T06:12:53;3.93;79.07
69084;SHT31;56185;48.526;9.044;2023-02-12T06:15:18;3.95;79.00
69084;SHT31;56185;48.526;9.044;2023-02-12T06:17:43;3.98;78.83
69084;SHT31;56185;48.526;9.044;2023-02-12T06:20:09;4.05;78.58
69084;SHT31;56185;48.526;9.044;2023-02-12T06:22:34;4.05;78.44
69084;SHT31;56185;48.526;9.044;2023-02-12T06:24:59;4.01;78.75
69084;SHT31;56185;48.526;9.044;2023-02-12T06:27:26;3.95;78.92
69084;SHT31;56185;48.526;9.044;2023-02-12T06:29:51;3.90;79.13
69084;SHT31;56185;48.526;9.044;2023-02-12T06:32:16;3.87;79.35
69084;SHT31;56185;48.526;9.044;2023-02-12T06:34:41;3.91;79.13
69084;SHT31;56185;48.526;9.044;2023-02-12T06:37:07;3.85;79.33
69084;SHT31;56185;48.526;9.044;2023-02-12T06:39:32;3.85;79.23
69084;SHT31;56185;48.526;9.044;2023-02-12T06:41:58;3.84;79.32
69084;SHT31;56185;48.526;9.044;2023-02-12T06:44:23;3.83;79.32
69084;SHT31;56185;48.526;9.044;2023-02-12T06:46:49;3.81;79.54
69084;SHT31;56185;48.526;9.044;2023-02-12T06:49:14;3.85;79.19
69084;SHT31;56185;48.526;9.044;2023-02-12T06:51:40;3.83;79.39
69084;SHT31;56185;48.526;9.044;2023-02-12T06:54:12;3.87;79.25
69084;SHT31;56185;48.526;9.044;2023-02-12T06:56:38;3.81;79.35
69084;SHT31;56185;48.526;9.044;2023-02-12T06:59:03;3.83;79.51
69084;SHT31;56185;48.526;9.044;2023-02-12T07:01:29;3.81;79.26
69084;SHT31;56185;48.526;9.044;2023-02-12T07:03:56;3.84;79.36
69084;SHT31;56185;48.526;9.044;2023-02-12T07:06:22;3.87;79.23
69084;SHT31;56185;48.526;9.044;2023-02-12T07:08:49;3.84;79.15
69084;SHT31;56185;48.526;9.044;2023-02-12T07:11:15;3.87;79.19
69084;SHT31;56185;48.526;9.044;2023-02-12T07:13:41;3.83;79.33
69084;SHT31;56185;48.526;9.044;2023-02-12T07:16:10;3.83;79.16
69084;SHT31;56185;48.526;9.044;2023-02-12T07:18:36;3.85;79.08
69084;SHT31;56185;48.526;9.044;2023-02-12T07:21:03;3.85;79.06
69084;SHT31;56185;48.526;9.044;2023-02-12T07:23:28;3.93;78.89
69084;SHT31;56185;48.526;9.044;2023-02-12T07:26:02;3.85;78.98
69084;SHT31;56185;48.526;9.044;2023-02-12T07:28:28;3.85;79.06
69084;SHT31;56185;48.526;9.044;2023-02-12T07:30:54;3.93;78.68
69084;SHT31;56185;48.526;9.044;2023-02-12T07:33:19;3.88;78.81
69084;SHT31;56185;48.526;9.044;2023-02-12T07:35:45;3.88;78.78
69084;SHT31;56185;48.526;9.044;2023-02-12T07:38:12;3.97;78.69
69084;SHT31;56185;48.526;9.044;2023-02-12T07:40:37;3.94;78.78
69084;SHT31;56185;48.526;9.044;2023-02-12T07:43:03;4.01;78.52
69084;SHT31;56185;48.526;9.044;2023-02-12T07:45:28;4.05;78.48
69084;SHT31;56185;48.526;9.044;2023-02-12T07:47:54;4.05;78.44
69084;SHT31;56185;48.526;9.044;2023-02-12T07:50:19;4.12;78.32
69084;SHT31;56185;48.526;9.044;2023-02-12T07:52:44;4.18;78.20
69084;SHT31;56185;48.526;9.044;2023-02-12T07:55:09;4.21;78.11
69084;SHT31;56185;48.526;9.044;2023-02-12T07:57:35;4.29;77.92
69084;SHT31;56185;48.526;9.044;2023-02-12T08:00:00;4.36;77.44
69084;SHT31;56185;48.526;9.044;2023-02-12T08:02:26;4.42;77.27
69084;SHT31;56185;48.526;9.044;2023-02-12T08:04:55;4.45;77.17
69084;SHT31;56185;48.526;9.044;2023-02-12T08:07:21;4.50;77.14
69084;SHT31;56185;48.526;9.044;2023-02-12T08:09:46;4.53;76.99
69084;SHT31;56185;48.526;9.044;2023-02-12T08:12:11;4.60;77.03
69084;SHT31;56185;48.526;9.044;2023-02-12T08:14:36;4.65;76.91
69084;SHT31;56185;48.526;9.044;2023-02-12T08:17:02;4.72;76.76
69084;SHT31;56185;48.526;9.044;2023-02-12T08:19:28;4.72;76.74
69084;SHT31;56185;48.526;9.044;2023-02-12T08:21:55;4.69;77.01
69084;SHT31;56185;48.526;9.044;2023-02-12T08:24:20;4.80;76.71
69084;SHT31;56185;48.526;9.044;2023-02-12T08:26:46;4.87;76.55
69084;SHT31;56185;48.526;9.044;2023-02-12T08:29:16;4.86;76.65
69084;SHT31;56185;48.526;9.044;2023-02-12T08:31:44;4.88;76.17
69084;SHT31;56185;48.526;9.044;2023-02-12T08:34:18;4.87;76.48
69084;SHT31;56185;48.526;9.044;2023-02-12T08:36:46;4.94;76.32
69084;SHT31;56185;48.526;9.044;2023-02-12T08:39:14;5.00;76.37
69084;SHT31;56185;48.526;9.044;2023-02-12T08:41:40;5.01;76.64
69084;SHT31;56185;48.526;9.044;2023-02-12T08:44:07;5.08;76.35
69084;SHT31;56185;48.526;9.044;2023-02-12T08:46:35;5.08;76.53
69084;SHT31;56185;48.526;9.044;2023-02-12T08:49:04;5.08;76.63
69084;SHT31;56185;48.526;9.044;2023-02-12T08:51:32;5.13;76.60
69084;SHT31;56185;48.526;9.044;2023-02-12T08:54:00;5.24;76.41
69084;SHT31;56185;48.526;9.044;2023-02-12T08:56:27;5.27;76.24
69084;SHT31;56185;48.526;9.044;2023-02-12T08:58:52;5.30;76.24
69084;SHT31;56185;48.526;9.044;2023-02-12T09:01:20;5.30;76.41
69084;SHT31;56185;48.526;9.044;2023-02-12T09:03:46;5.34;76.32
69084;SHT31;56185;48.526;9.044;2023-02-12T09:06:14;5.41;76.29
69084;SHT31;56185;48.526;9.044;2023-02-12T09:08:40;5.39;76.47
69084;SHT31;56185;48.526;9.044;2023-02-12T09:11:07;5.46;76.16
69084;SHT31;56185;48.526;9.044;2023-02-12T09:13:33;5.52;76.22
69084;SHT31;56185;48.526;9.044;2023-02-12T09:16:01;5.63;75.60
69084;SHT31;56185;48.526;9.044;2023-02-12T09:18:26;5.55;76.20
69084;SHT31;56185;48.526;9.044;2023-02-12T09:20:52;5.67;76.25
69084;SHT31;56185;48.526;9.044;2023-02-12T09:23:17;5.70;76.30
69084;SHT31;56185;48.526;9.044;2023-02-12T09:25:44;5.79;75.99
69084;SHT31;56185;48.526;9.044;2023-02-12T09:28:10;5.89;76.07
69084;SHT31;56185;48.526;9.044;2023-02-12T09:30:37;5.86;76.22
69084;SHT31;56185;48.526;9.044;2023-02-12T09:33:05;5.93;76.64
69084;SHT31;56185;48.526;9.044;2023-02-12T09:35:33;6.04;75.81
69084;SHT31;56185;48.526;9.044;2023-02-12T09:37:59;6.18;75.90
69084;SHT31;56185;48.526;9.044;2023-02-12T09:43:59;6.34;75.39
69084;SHT31;56185;48.526;9.044;2023-02-12T09:46:32;6.38;75.28
69084;SHT31;56185;48.526;9.044;2023-02-12T09:52:05;6.55;75.27
69084;SHT31;56185;48.526;9.044;2023-02-12T09:54:38;6.58;74.06
69084;SHT31;56185;48.526;9.044;2023-02-12T09:57:10;6.61;74.20
69084;SHT31;56185;48.526;9.044;2023-02-12T09:59:47;6.69;74.10
69084;SHT31;56185;48.526;9.044;2023-02-12T10:02:16;6.67;74.55
69084;SHT31;56185;48.526;9.044;2023-02-12T10:04:45;6.75;74.02
69084;SHT31;56185;48.526;9.044;2023-02-12T10:18:20;7.07;74.23
69084;SHT31;56185;48.526;9.044;2023-02-12T10:24:18;7.04;74.50
69084;SHT31;56185;48.526;9.044;2023-02-12T10:26:49;7.16;74.33
69084;SHT31;56185;48.526;9.044;2023-02-12T10:29:22;7.16;74.31
69084;SHT31;56185;48.526;9.044;2023-02-12T10:31:54;7.19;74.18
69084;SHT31;56185;48.526;9.044;2023-02-12T10:34:24;7.03;74.22
69084;SHT31;56185;48.526;9.044;2023-02-12T10:36:51;7.30;74.22
69084;SHT31;56185;48.526;9.044;2023-02-12T10:39:20;7.27;73.99
69084;SHT31;56185;48.526;9.044;2023-02-12T10:41:57;7.43;74.13
69084;SHT31;56185;48.526;9.044;2023-02-12T10:44:26;7.33;74.31
69084;SHT31;56185;48.526;9.044;2023-02-12T10:46:52;7.41;74.54
69084;SHT31;56185;48.526;9.044;2023-02-12T10:49:18;7.41;74.12
69084;SHT31;56185;48.526;9.044;2023-02-12T10:54:45;7.48;74.65
69084;SHT31;56185;48.526;9.044;2023-02-12T10:57:25;7.68;73.52
69084;SHT31;56185;48.526;9.044;2023-02-12T10:59:53;7.77;73.28
69084;SHT31;56185;48.526;9.044;2023-02-12T11:02:29;7.86;73.53
69084;SHT31;56185;48.526;9.044;2023-02-12T11:04:56;7.88;73.06
69084;SHT31;56185;48.526;9.044;2023-02-12T11:07:22;7.86;73.09
69084;SHT31;56185;48.526;9.044;2023-02-12T11:09:49;7.96;72.46
69084;SHT31;56185;48.526;9.044;2023-02-12T11:12:35;7.88;72.96
69084;SHT31;56185;48.526;9.044;2023-02-12T11:15:17;7.99;72.86
69084;SHT31;56185;48.526;9.044;2023-02-12T11:18:04;8.06;72.81
69084;SHT31;56185;48.526;9.044;2023-02-12T11:20:47;8.13;72.42
69084;SHT31;56185;48.526;9.044;2023-02-12T11:23:30;8.06;72.46
69084;SHT31;56185;48.526;9.044;2023-02-12T11:26:01;8.16;72.24
69084;SHT31;56185;48.526;9.044;2023-02-12T11:28:27;8.23;71.63
69084;SHT31;56185;48.526;9.044;2023-02-12T11:31:03;8.17;72.06
69084;SHT31;56185;48.526;9.044;2023-02-12T11:33:41;8.25;72.42
69084;SHT31;56185;48.526;9.044;2023-02-12T11:36:23;8.05;72.10
69084;SHT31;56185;48.526;9.044;2023-02-12T11:38:57;8.26;72.09
69084;SHT31;56185;48.526;9.044;2023-02-12T11:41:36;8.23;71.98
69084;SHT31;56185;48.526;9.044;2023-02-12T11:44:18;8.28;71.73
69084;SHT31;56185;48.526;9.044;2023-02-12T11:46:50;8.40;71.58
69084;SHT31;56185;48.526;9.044;2023-02-12T11:49:24;8.44;71.91
69084;SHT31;56185;48.526;9.044;2023-02-12T11:51:51;8.32;71.61
69084;SHT31;56185;48.526;9.044;2023-02-12T11:54:24;8.37;71.86
69084;SHT31;56185;48.526;9.044;2023-02-12T11:56:50;8.67;71.48
69084;SHT31;56185;48.526;9.044;2023-02-12T12:02:08;8.81;71.18
69084;SHT31;56185;48.526;9.044;2023-02-12T12:04:40;8.85;71.07
69084;SHT31;56185;48.526;9.044;2023-02-12T12:07:28;9.02;70.06
69084;SHT31;56185;48.526;9.044;2023-02-12T12:10:58;8.97;69.62
69084;SHT31;56185;48.526;9.044;2023-02-12T12:13:01;9.08;69.87
69084;SHT31;56185;48.526;9.044;2023-02-12T12:15:32;9.11;69.72
69084;SHT31;56185;48.526;9.044;2023-02-12T12:18:04;9.15;69.55
69084;SHT31;56185;48.526;9.044;2023-02-12T12:20:51;8.88;70.68
69084;SHT31;56185;48.526;9.044;2023-02-12T12:23:41;9.22;69.18
69084;SHT31;56185;48.526;9.044;2023-02-12T12:26:24;9.08;69.93
69084;SHT31;56185;48.526;9.044;2023-02-12T12:28:59;8.74;69.50
69084;SHT31;56185;48.526;9.044;2023-02-12T12:39:43;9.26;69.01
69084;SHT31;56185;48.526;9.044;2023-02-12T12:53:10;9.60;68.70
69084;SHT31;56185;48.526;9.044;2023-02-12T13:04:24;9.67;68.65
69084;SHT31;56185;48.526;9.044;2023-02-12T13:07:06;9.87;68.43
69084;SHT31;56185;48.526;9.044;2023-02-12T13:12:27;9.83;69.01
69084;SHT31;56185;48.526;9.044;2023-02-12T13:17:38;9.80;68.19
69084;SHT31;56185;48.526;9.044;2023-02-12T13:20:17;9.73;68.67
69084;SHT31;56185;48.526;9.044;2023-02-12T13:23:22;9.72;68.95
69084;SHT31;56185;48.526;9.044;2023-02-12T13:28:54;9.80;68.22
69084;SHT31;56185;48.526;9.044;2023-02-12T13:31:22;9.80;68.52
69084;SHT31;56185;48.526;9.044;2023-02-12T13:33:52;9.84;68.70
69084;SHT31;56185;48.526;9.044;2023-02-12T13:36:19;9.98;68.41
69084;SHT31;56185;48.526;9.044;2023-02-12T13:38:57;9.97;68.64
69084;SHT31;56185;48.526;9.044;2023-02-12T13:41:24;9.98;68.42
69084;SHT31;56185;48.526;9.044;2023-02-12T13:44:15;10.05;68.15
69084;SHT31;56185;48.526;9.044;2023-02-12T13:46:48;10.01;68.32
69084;SHT31;56185;48.526;9.044;2023-02-12T13:57:40;9.62;69.69
69084;SHT31;56185;48.526;9.044;2023-02-12T14:00:55;9.67;69.40
69084;SHT31;56185;48.526;9.044;2023-02-12T14:03:11;9.67;69.62
69084;SHT31;56185;48.526;9.044;2023-02-12T14:05:37;9.67;69.62
69084;SHT31;56185;48.526;9.044;2023-02-12T14:08:04;9.57;69.74
69084;SHT31;56185;48.526;9.044;2023-02-12T14:10:39;9.64;69.46
69084;SHT31;56185;48.526;9.044;2023-02-12T14:15:35;9.54;69.82
69084;SHT31;56185;48.526;9.044;2023-02-12T14:20:31;9.67;69.66
69084;SHT31;56185;48.526;9.044;2023-02-12T14:23:23;9.57;69.32
69084;SHT31;56185;48.526;9.044;2023-02-12T14:26:05;9.49;70.10
69084;SHT31;56185;48.526;9.044;2023-02-12T14:28:46;9.53;69.93
69084;SHT31;56185;48.526;9.044;2023-02-12T14:33:49;9.59;69.99
69084;SHT31;56185;48.526;9.044;2023-02-12T14:38:58;9.67;69.78
69084;SHT31;56185;48.526;9.044;2023-02-12T14:41:32;9.66;69.75
69084;SHT31;56185;48.526;9.044;2023-02-12T14:54:59;9.67;69.57
69084;SHT31;56185;48.526;9.044;2023-02-12T15:02:29;9.93;68.85
69084;SHT31;56185;48.526;9.044;2023-02-12T15:05:00;9.77;69.33
69084;SHT31;56185;48.526;9.044;2023-02-12T15:07:38;9.91;68.69
69084;SHT31;56185;48.526;9.044;2023-02-12T15:10:12;9.86;68.67
69084;SHT31;56185;48.526;9.044;2023-02-12T15:12:46;9.90;68.92
69084;SHT31;56185;48.526;9.044;2023-02-12T15:15:32;9.94;68.61
69084;SHT31;56185;48.526;9.044;2023-02-12T15:18:16;9.91;68.89
69084;SHT31;56185;48.526;9.044;2023-02-12T15:20:49;9.98;68.56
69084;SHT31;56185;48.526;9.044;2023-02-12T15:23:41;9.95;68.79
69084;SHT31;56185;48.526;9.044;2023-02-12T15:26:13;9.90;68.66
69084;SHT31;56185;48.526;9.044;2023-02-12T15:28:40;9.90;68.66
69084;SHT31;56185;48.526;9.044;2023-02-12T15:31:07;9.84;68.58
69084;SHT31;56185;48.526;9.044;2023-02-12T15:33:34;9.89;68.74
69084;SHT31;56185;48.526;9.044;2023-02-12T15:36:01;9.89;68.42
69084;SHT31;56185;48.526;9.044;2023-02-12T15:38:35;9.77;68.50
69084;SHT31;56185;48.526;9.044;2023-02-12T15:41:02;9.74;68.80
69084;SHT31;56185;48.526;9.044;2023-02-12T15:43:30;9.77;68.78
69084;SHT31;56185;48.526;9.044;2023-02-12T15:45:56;9.77;68.75
69084;SHT31;56185;48.526;9.044;2023-02-12T15:48:28;9.69;68.71
69084;SHT31;56185;48.526;9.044;2023-02-12T15:50:54;9.67;68.69
69084;SHT31;56185;48.526;9.044;2023-02-12T15:53:23;9.59;68.90
69084;SHT31;56185;48.526;9.044;2023-02-12T15:55:50;9.47;69.35
69084;SHT31;56185;48.526;9.044;2023-02-12T15:58:27;9.29;69.72
69084;SHT31;56185;48.526;9.044;2023-02-12T16:00:59;9.35;69.57
69084;SHT31;56185;48.526;9.044;2023-02-12T16:03:28;9.23;69.94
69084;SHT31;56185;48.526;9.044;2023-02-12T16:05:56;9.08;70.36
69084;SHT31;56185;48.526;9.044;2023-02-12T16:08:25;8.97;70.60
69084;SHT31;56185;48.526;9.044;2023-02-12T16:10:52;8.92;71.11
69084;SHT31;56185;48.526;9.044;2023-02-12T16:13:23;8.82;71.40
69084;SHT31;56185;48.526;9.044;2023-02-12T16:16:18;8.82;71.64
69084;SHT31;56185;48.526;9.044;2023-02-12T16:18:44;8.87;71.21
69084;SHT31;56185;48.526;9.044;2023-02-12T16:21:16;8.74;71.78
69084;SHT31;56185;48.526;9.044;2023-02-12T16:23:43;8.84;71.62
69084;SHT31;56185;48.526;9.044;2023-02-12T16:26:16;8.78;71.26
69084;SHT31;56185;48.526;9.044;2023-02-12T16:28:45;8.68;71.34
69084;SHT31;56185;48.526;9.044;2023-02-12T16:31:13;8.61;71.81
69084;SHT31;56185;48.526;9.044;2023-02-12T16:36:25;8.52;72.06
69084;SHT31;56185;48.526;9.044;2023-02-12T16:38:52;8.43;72.36
69084;SHT31;56185;48.526;9.044;2023-02-12T16:43:43;8.23;73.02
69084;SHT31;56185;48.526;9.044;2023-02-12T16:46:10;8.21;72.70
69084;SHT31;56185;48.526;9.044;2023-02-12T16:48:39;8.23;72.59
69084;SHT31;56185;48.526;9.044;2023-02-12T16:51:05;8.25;72.39
69084;SHT31;56185;48.526;9.044;2023-02-12T16:53:33;8.17;72.98
69084;SHT31;56185;48.526;9.044;2023-02-12T16:56:01;8.12;73.12
69084;SHT31;56185;48.526;9.044;2023-02-12T16:58:27;8.10;73.36
69084;SHT31;56185;48.526;9.044;2023-02-12T17:00:54;7.96;73.59
69084;SHT31;56185;48.526;9.044;2023-02-12T17:03:20;7.85;73.59
69084;SHT31;56185;48.526;9.044;2023-02-12T17:05:45;7.81;74.03
69084;SHT31;56185;48.526;9.044;2023-02-12T17:08:16;7.84;73.78
69084;SHT31;56185;48.526;9.044;2023-02-12T17:10:41;7.79;73.91
69084;SHT31;56185;48.526;9.044;2023-02-12T17:13:08;7.74;74.15
69084;SHT31;56185;48.526;9.044;2023-02-12T17:15:41;7.63;74.17
69084;SHT31;56185;48.526;9.044;2023-02-12T17:18:08;7.63;74.03
69084;SHT31;56185;48.526;9.044;2023-02-12T17:20:33;7.51;74.70
69084;SHT31;56185;48.526;9.044;2023-02-12T17:22:58;7.37;74.81
69084;SHT31;56185;48.526;9.044;2023-02-12T17:25:24;7.35;75.14
69084;SHT31;56185;48.526;9.044;2023-02-12T17:27:49;7.33;75.45
69084;SHT31;56185;48.526;9.044;2023-02-12T17:30:17;7.17;75.34
69084;SHT31;56185;48.526;9.044;2023-02-12T17:32:43;7.04;75.66
69084;SHT31;56185;48.526;9.044;2023-02-12T17:35:08;7.02;76.02
69084;SHT31;56185;48.526;9.044;2023-02-12T17:37:34;7.03;75.83
69084;SHT31;56185;48.526;9.044;2023-02-12T17:39:59;6.79;77.08
69084;SHT31;56185;48.526;9.044;2023-02-12T17:42:24;6.81;76.89
69084;SHT31;56185;48.526;9.044;2023-02-12T17:44:51;6.76;76.63
69084;SHT31;56185;48.526;9.044;2023-02-12T17:47:16;6.71;76.74
69084;SHT31;56185;48.526;9.044;2023-02-12T17:49:41;6.61;76.56
69084;SHT31;56185;48.526;9.044;2023-02-12T17:52:07;6.52;76.99
69084;SHT31;56185;48.526;9.044;2023-02-12T17:54:32;6.49;77.39
69084;SHT31;56185;48.526;9.044;2023-02-12T17:56:57;6.37;77.36
69084;SHT31;56185;48.526;9.044;2023-02-12T17:59:22;6.38;77.19
69084;SHT31;56185;48.526;9.044;2023-02-12T18:01:48;6.27;77.56
69084;SHT31;56185;48.526;9.044;2023-02-12T18:04:13;6.21;77.74
69084;SHT31;56185;48.526;9.044;2023-02-12T18:06:38;5.96;78.53
69084;SHT31;56185;48.526;9.044;2023-02-12T18:09:04;5.87;78.64
69084;SHT31;56185;48.526;9.044;2023-02-12T18:11:29;5.92;78.32
69084;SHT31;56185;48.526;9.044;2023-02-12T18:13:56;5.82;78.29
69084;SHT31;56185;48.526;9.044;2023-02-12T18:16:23;5.73;78.45
69084;SHT31;56185;48.526;9.044;2023-02-12T18:18:48;5.79;78.44
69084;SHT31;56185;48.526;9.044;2023-02-12T18:21:14;5.73;78.66